Time;durP1;ratioP1;P1;durP2;ratioP2;P2;SDS_P1;SDS_P2;PMS_P1;PMS_P2;Temp;Humidity;BMP_temperature;BMP_pressure;BME280_temperature;BME280_humidity;BME280_pressure;Samples;Min_cycle;Max_cycle;Signal;HPM_P1;HPM_P2
2022/11/09 00:00:20;;;;;;;4.47;3.70;;;3.70;99.90;4.30;96805.00;;;;5069094;28;20527;-69
2022/11/09 00:03:09;;;;;;;3.63;3.00;;;3.70;99.90;4.10;96802.00;;;;5081798;28;20429;-69
2022/11/09 00:05:59;;;;;;;5.07;3.63;;;3.60;99.90;4.50;96814.00;;;;5067696;28;20426;-69
2022/11/09 00:08:48;;;;;;;6.90;4.30;;;3.60;99.90;4.60;96797.00;;;;5068329;28;20454;-69
2022/11/09 00:11:37;;;;;;;10.27;4.97;;;3.60;99.90;4.50;96799.00;;;;5085003;28;20421;-69
2022/11/09 00:14:26;;;;;;;5.93;4.47;;;3.60;99.90;4.30;96801.00;;;;5084735;28;20459;-69
2022/11/09 00:17:16;;;;;;;7.07;3.37;;;3.50;99.90;4.30;96808.00;;;;5071343;28;20419;-69
2022/11/09 00:20:07;;;;;;;4.33;3.67;;;3.40;99.90;4.40;96808.00;;;;5071475;28;20438;-69
2022/11/09 00:22:55;;;;;;;5.40;4.20;;;3.40;99.90;4.70;96799.00;;;;5073398;28;20514;-69
2022/11/09 00:25:44;;;;;;;5.30;3.00;;;3.40;99.90;4.60;96793.00;;;;5075016;28;20433;-69
2022/11/09 00:28:33;;;;;;;6.77;4.03;;;3.40;99.90;4.20;96795.00;;;;5084173;28;20453;-69
2022/11/09 00:31:24;;;;;;;7.40;3.47;;;3.40;99.90;4.40;96803.00;;;;5073174;28;20433;-69
2022/11/09 00:34:14;;;;;;;3.43;2.43;;;3.40;99.90;4.60;96788.00;;;;5080875;28;20436;-69
2022/11/09 00:37:03;;;;;;;5.43;2.40;;;3.50;99.90;4.00;96795.00;;;;5092517;28;20421;-70
2022/11/09 00:39:51;;;;;;;4.90;3.43;;;3.40;99.90;3.90;96799.00;;;;5090501;28;21311;-69
2022/11/09 00:42:40;;;;;;;3.30;3.00;;;3.30;99.90;3.60;96790.00;;;;5092014;28;20460;-69
2022/11/09 00:45:29;;;;;;;4.30;2.73;;;3.10;99.90;4.00;96781.00;;;;5091168;28;20470;-69
2022/11/09 00:48:17;;;;;;;3.53;2.90;;;3.00;99.90;4.10;96796.00;;;;5090910;28;20885;-69
2022/11/09 00:51:09;;;;;;;8.40;3.07;;;3.00;99.90;4.30;96792.00;;;;5091860;28;20551;-69
2022/11/09 00:53:57;;;;;;;2.80;2.27;;;3.10;99.90;4.30;96782.00;;;;5091532;28;20429;-73
2022/11/09 00:56:46;;;;;;;4.73;3.77;;;3.20;99.90;4.60;96780.00;;;;5088162;28;20949;-69
2022/11/09 00:59:35;;;;;;;5.23;3.33;;;3.50;99.90;4.30;96786.00;;;;5083884;28;20487;-72
2022/11/09 01:02:23;;;;;;;3.17;2.80;;;3.40;99.90;4.20;96783.00;;;;5089553;28;20933;-70
2022/11/09 01:05:13;;;;;;;7.13;3.23;;;3.40;99.90;3.90;96768.00;;;;5086776;28;20453;-70
2022/11/09 01:08:04;;;;;;;3.43;2.87;;;3.30;99.90;3.40;96763.00;;;;5089770;28;20425;-70
2022/11/09 01:10:52;;;;;;;2.30;2.20;;;3.10;99.90;3.20;96762.00;;;;5088709;28;21030;-71
2022/11/09 01:13:41;;;;;;;17.43;2.83;;;3.00;99.90;3.60;96774.00;;;;5079689;28;20425;-68
2022/11/09 01:16:30;;;;;;;3.83;2.70;;;2.90;99.90;3.60;96776.00;;;;5080534;28;20450;-68
2022/11/09 01:19:18;;;;;;;2.93;2.63;;;2.90;99.90;3.60;96780.00;;;;5089588;28;20481;-69
2022/11/09 01:22:07;;;;;;;3.57;3.23;;;2.90;99.90;3.80;96783.00;;;;5070121;28;21201;-69
2022/11/09 01:24:57;;;;;;;3.10;2.60;;;3.00;99.90;4.00;96767.00;;;;5069968;28;20423;-68
2022/11/09 01:27:46;;;;;;;5.77;3.23;;;3.00;99.90;4.20;96770.00;;;;5081963;28;20544;-69
2022/11/09 01:30:36;;;;;;;3.60;2.67;;;3.10;99.90;4.20;96772.00;;;;5070757;28;20462;-69
2022/11/09 01:33:25;;;;;;;2.87;2.50;;;3.10;99.90;4.00;96774.00;;;;5072741;28;20418;-69
2022/11/09 01:36:16;;;;;;;3.70;3.33;;;3.10;99.90;3.40;96773.00;;;;5083629;28;20429;-69
2022/11/09 01:39:05;;;;;;;2.77;2.27;;;3.00;99.90;3.00;96761.00;;;;5082962;28;20438;-71
2022/11/09 01:41:55;;;;;;;4.13;2.97;;;2.80;99.90;3.30;96766.00;;;;5085285;28;20976;-71
2022/11/09 01:44:44;;;;;;;3.10;2.70;;;2.70;99.90;3.00;96760.00;;;;5074316;28;20410;-69
2022/11/09 01:47:33;;;;;;;4.03;3.20;;;3.20;99.90;3.20;96768.00;;;;5077397;28;20430;-67
2022/11/09 01:50:31;;;;;;;3.57;2.97;;;2.60;99.90;3.70;96771.00;;;;5086230;28;21364;-69
2022/11/09 01:53:24;;;;;;;9.10;3.70;;;2.70;99.90;4.00;96768.00;;;;5085047;28;20475;-69
2022/11/09 01:56:14;;;;;;;3.73;3.37;;;2.80;99.90;3.80;96775.00;;;;5087369;28;20811;-69
2022/11/09 01:59:11;;;;;;;8.93;3.87;;;2.90;99.90;3.80;96767.00;;;;5070586;28;20508;-68
2022/11/09 02:02:00;;;;;;;4.13;3.53;;;2.80;99.90;4.00;96775.00;;;;5079318;28;20983;-68
2022/11/09 02:04:54;;;;;;;11.17;4.07;;;2.90;99.90;3.70;96771.00;;;;5073027;28;20476;-71
2022/11/09 02:07:43;;;;;;;3.07;2.77;;;2.90;99.90;3.80;96766.00;;;;5070044;28;20952;-71
2022/11/09 02:10:39;;;;;;;6.63;3.13;;;3.00;99.90;3.90;96769.00;;;;5077432;28;20864;-69
2022/11/09 02:13:29;;;;;;;4.33;3.80;;;3.00;99.90;3.40;96774.00;;;;5089045;28;20429;-69
2022/11/09 02:16:19;;;;;;;3.93;3.10;;;3.00;99.90;3.50;96767.00;;;;5073261;28;20434;-70
2022/11/09 02:19:08;;;;;;;2.90;2.50;;;3.00;99.90;3.80;96760.00;;;;5069295;28;20480;-67
2022/11/09 02:21:58;;;;;;;4.03;3.33;;;3.40;99.90;3.90;96764.00;;;;5069240;28;20537;-68
2022/11/09 02:24:47;;;;;;;7.10;4.10;;;3.20;99.90;4.20;96762.00;;;;5069617;28;20495;-68
2022/11/09 02:27:39;;;;;;;3.83;2.77;;;3.30;99.90;3.90;96761.00;;;;5089121;28;20920;-70
2022/11/09 02:30:29;;;;;;;3.10;2.83;;;3.30;99.90;3.50;96747.00;;;;5085092;28;20466;-70
2022/11/09 02:33:18;;;;;;;3.20;2.00;;;3.10;99.90;2.90;96742.00;;;;5085447;28;20430;-68
2022/11/09 02:36:07;;;;;;;6.03;2.73;;;2.80;99.90;3.00;96733.00;;;;5089579;28;20999;-69
2022/11/09 02:38:58;;;;;;;7.30;4.23;;;2.60;99.90;3.70;96747.00;;;;5089410;28;20499;-68
2022/11/09 02:41:52;;;;;;;4.60;4.13;;;2.70;99.90;3.90;96746.00;;;;5081775;28;20487;-68
2022/11/09 02:44:46;;;;;;;3.40;2.70;;;2.90;99.90;3.50;96739.00;;;;5084236;28;20495;-73
2022/11/09 02:47:35;;;;;;;3.83;3.47;;;2.90;99.90;3.20;96741.00;;;;5077283;28;20433;-69
2022/11/09 02:50:23;;;;;;;3.53;1.80;;;2.80;99.90;2.60;96732.00;;;;5085491;28;20498;-69
2022/11/09 02:53:12;;;;;;;4.07;2.53;;;2.50;99.90;3.00;96735.00;;;;5082995;28;20445;-68
2022/11/09 02:56:02;;;;;;;5.30;3.17;;;2.40;99.90;3.40;96729.00;;;;5085244;28;20433;-72
2022/11/09 02:58:51;;;;;;;6.97;3.60;;;2.50;99.90;3.80;96732.00;;;;5080845;28;21001;-71
2022/11/09 03:01:39;;;;;;;3.83;3.40;;;2.70;99.90;4.00;96732.00;;;;5072372;28;20493;-69
2022/11/09 03:04:28;;;;;;;6.10;4.07;;;2.90;99.90;4.20;96742.00;;;;5069614;28;20422;-69
2022/11/09 03:07:17;;;;;;;6.43;2.93;;;2.90;99.90;3.80;96735.00;;;;5078721;28;20449;-68
2022/11/09 03:10:06;;;;;;;2.20;2.00;;;3.00;99.90;3.30;96740.00;;;;5088203;28;20991;-69
2022/11/09 03:12:56;;;;;;;2.70;2.37;;;3.00;99.90;3.10;96729.00;;;;5085434;28;20461;-70
2022/11/09 03:15:45;;;;;;;2.70;2.50;;;2.90;99.90;3.00;96740.00;;;;5089514;28;20422;-68
2022/11/09 03:18:34;;;;;;;5.00;3.07;;;2.80;99.90;3.50;96744.00;;;;5089012;28;20519;-68
2022/11/09 03:21:23;;;;;;;2.90;2.67;;;2.60;99.90;3.70;96756.00;;;;5076943;28;20483;-69
2022/11/09 03:24:12;;;;;;;3.43;2.83;;;2.70;99.90;3.60;96749.00;;;;5076276;28;20487;-68
2022/11/09 03:27:00;;;;;;;3.37;3.07;;;2.80;99.90;3.40;96766.00;;;;5080207;28;21241;-69
2022/11/09 03:29:50;;;;;;;3.83;3.07;;;2.70;99.90;3.10;96756.00;;;;5067508;28;20457;-71
2022/11/09 03:32:39;;;;;;;3.67;2.93;;;2.60;99.90;3.50;96758.00;;;;5069301;28;20427;-68
2022/11/09 03:35:28;;;;;;;6.73;4.23;;;2.60;99.90;3.60;96762.00;;;;5082902;28;20523;-69
2022/11/09 03:38:17;;;;;;;3.83;3.53;;;2.60;99.90;3.30;96758.00;;;;5079817;28;20441;-69
2022/11/09 03:41:06;;;;;;;7.07;4.03;;;2.60;99.90;3.60;96755.00;;;;5077334;28;20433;-69
2022/11/09 03:43:54;;;;;;;8.80;4.57;;;2.60;99.90;3.30;96752.00;;;;5085297;28;20489;-69
2022/11/09 03:46:44;;;;;;;2.83;2.60;;;2.70;99.90;3.50;96751.00;;;;5083621;28;20453;-68
2022/11/09 03:49:33;;;;;;;5.47;4.93;;;2.60;99.90;3.80;96747.00;;;;5086597;28;20916;-69
2022/11/09 03:52:22;;;;;;;6.97;4.27;;;2.80;99.90;3.60;96752.00;;;;5072813;28;20507;-69
2022/11/09 03:55:11;;;;;;;4.60;3.73;;;2.80;99.90;3.50;96749.00;;;;5088151;28;20425;-70
2022/11/09 03:57:59;;;;;;;3.33;3.03;;;2.80;99.90;3.10;96750.00;;;;5078673;28;20454;-68
2022/11/09 04:00:48;;;;;;;5.00;3.00;;;2.70;99.90;2.60;96746.00;;;;5077890;28;20429;-68
2022/11/09 04:03:38;;;;;;;5.50;3.27;;;2.40;99.90;2.90;96754.00;;;;5079272;28;20492;-69
2022/11/09 04:06:27;;;;;;;3.17;2.93;;;2.30;99.90;2.80;96754.00;;;;5084556;28;20421;-69
2022/11/09 04:09:16;;;;;;;7.07;3.33;;;2.30;99.90;3.00;96754.00;;;;5080519;28;20442;-69
2022/11/09 04:12:05;;;;;;;3.80;3.43;;;2.30;99.90;3.30;96755.00;;;;5091020;28;20461;-68
2022/11/09 04:14:54;;;;;;;6.80;4.37;;;2.40;99.90;3.70;96755.00;;;;5092026;28;20417;-68
2022/11/09 04:17:44;;;;;;;13.43;5.10;;;2.50;99.90;4.00;96753.00;;;;5092559;28;20471;-68
2022/11/09 04:20:34;;;;;;;7.53;3.73;;;2.70;99.90;3.90;96759.00;;;;5092555;28;20520;-68
2022/11/09 04:23:23;;;;;;;4.40;3.97;;;2.80;99.90;3.30;96754.00;;;;5088841;28;20423;-69
2022/11/09 04:26:11;;;;;;;5.47;4.13;;;2.80;99.90;3.20;96741.00;;;;5080538;28;20433;-69
2022/11/09 04:29:00;;;;;;;7.47;3.80;;;2.60;99.90;3.70;96740.00;;;;5084751;28;20558;-69
2022/11/09 04:31:49;;;;;;;6.73;3.93;;;2.60;99.90;3.60;96731.00;;;;5085797;28;20453;-68
2022/11/09 04:34:40;;;;;;;5.03;3.80;;;2.50;99.90;3.20;96726.00;;;;5086041;28;20426;-68
2022/11/09 04:37:30;;;;;;;7.77;2.80;;;2.50;99.90;2.80;96725.00;;;;5072068;28;20462;-71
2022/11/09 04:40:18;;;;;;;3.40;3.10;;;2.30;99.90;2.60;96724.00;;;;5072511;28;20434;-66
2022/11/09 04:43:12;;;;;;;3.63;2.60;;;2.20;99.90;2.70;96721.00;;;;5074206;28;20431;-68
2022/11/09 04:46:01;;;;;;;4.27;3.57;;;2.30;99.90;2.80;96720.00;;;;5085816;28;20432;-68
2022/11/09 04:48:50;;;;;;;2.97;2.70;;;2.20;99.90;2.70;96718.00;;;;5091403;28;20438;-68
2022/11/09 04:51:39;;;;;;;7.33;3.70;;;2.10;99.90;3.00;96730.00;;;;5071607;28;20490;-68
2022/11/09 04:54:29;;;;;;;3.60;2.97;;;2.40;99.90;3.10;96724.00;;;;5080938;28;20450;-72
2022/11/09 04:57:17;;;;;;;3.80;3.10;;;2.30;99.90;2.70;96719.00;;;;5087426;28;20423;-69
2022/11/09 05:00:08;;;;;;;5.63;4.07;;;2.20;99.90;3.10;96727.00;;;;5082249;28;20447;-67
2022/11/09 05:03:00;;;;;;;5.17;4.03;;;2.30;99.90;3.40;96729.00;;;;5082460;28;20425;-69
2022/11/09 05:05:49;;;;;;;8.07;3.43;;;2.40;99.90;3.30;96733.00;;;;5079502;28;20425;-69
2022/11/09 05:08:38;;;;;;;6.83;3.87;;;2.40;99.90;3.60;96731.00;;;;5091304;28;20434;-68
2022/11/09 05:11:28;;;;;;;5.13;3.80;;;2.50;99.90;3.50;96728.00;;;;5076360;28;20992;-69
2022/11/09 05:14:17;;;;;;;4.70;3.33;;;2.50;99.90;3.30;96741.00;;;;5072286;28;20577;-68
2022/11/09 05:17:07;;;;;;;4.80;3.43;;;2.50;99.90;3.40;96730.00;;;;5078459;28;20471;-69
2022/11/09 05:19:56;;;;;;;4.93;3.40;;;2.40;99.90;3.30;96731.00;;;;5090396;28;20499;-69
2022/11/09 05:25:50;;;;;;;7.57;3.77;;;2.40;99.90;3.10;96731.00;;;;5087660;28;21010;-70
2022/11/09 05:28:40;;;;;;;5.30;3.37;;;2.30;99.90;3.20;96725.00;;;;5089546;28;20473;-69
2022/11/09 05:31:29;;;;;;;3.17;2.47;;;2.30;99.90;2.90;96733.00;;;;5083791;28;20531;-69
2022/11/09 05:34:18;;;;;;;3.90;3.53;;;2.30;99.90;3.40;96731.00;;;;5085736;28;20430;-69
2022/11/09 05:37:07;;;;;;;4.73;2.70;;;2.40;99.90;3.80;96729.00;;;;5091204;28;20418;-69
2022/11/09 05:39:55;;;;;;;6.87;4.27;;;2.50;99.90;3.30;96739.00;;;;5088460;28;20445;-69
2022/11/09 05:42:45;;;;;;;3.10;2.37;;;2.70;99.90;2.50;96734.00;;;;5081899;28;20977;-70
2022/11/09 05:45:35;;;;;;;3.80;2.97;;;2.40;99.90;2.50;96728.00;;;;5079526;28;20847;-68
2022/11/09 05:48:29;;;;;;;4.17;3.10;;;2.20;99.90;3.00;96746.00;;;;5086291;28;20442;-69
2022/11/09 05:51:18;;;;;;;5.60;3.27;;;2.10;99.90;3.30;96744.00;;;;5082117;28;20490;-68
2022/11/09 05:54:06;;;;;;;3.80;3.37;;;2.10;99.90;3.00;96739.00;;;;5076368;28;20421;-69
2022/11/09 05:56:55;;;;;;;4.40;3.43;;;2.20;99.90;2.80;96753.00;;;;5085559;28;20442;-70
2022/11/09 05:59:44;;;;;;;3.53;2.63;;;2.10;99.90;2.60;96749.00;;;;5089488;28;20430;-70
2022/11/09 06:02:34;;;;;;;3.33;2.73;;;2.00;99.90;2.80;96745.00;;;;5078453;28;20418;-69
2022/11/09 06:05:23;;;;;;;2.97;2.60;;;2.00;99.90;2.80;96752.00;;;;5089795;28;20444;-70
2022/11/09 06:08:14;;;;;;;5.23;4.30;;;2.10;99.90;2.90;96762.00;;;;5089007;28;20438;-73
2022/11/09 06:11:06;;;;;;;6.20;5.43;;;2.20;99.90;3.40;96774.00;;;;5087807;28;20434;-69
2022/11/09 06:13:54;;;;;;;7.60;6.60;;;2.30;99.90;3.40;96781.00;;;;5088577;28;20425;-69
2022/11/09 06:16:43;;;;;;;9.37;4.50;;;2.50;99.90;2.70;96769.00;;;;5089114;28;20417;-69
2022/11/09 06:19:33;;;;;;;6.90;3.27;;;2.30;99.90;2.40;96777.00;;;;5088370;28;20535;-70
2022/11/09 06:22:22;;;;;;;3.53;3.23;;;2.30;99.90;2.20;96776.00;;;;5086951;28;20442;-69
2022/11/09 06:25:11;;;;;;;4.00;3.60;;;2.00;99.90;2.50;96779.00;;;;5084242;28;20418;-68
2022/11/09 06:27:59;;;;;;;5.53;2.93;;;2.00;99.90;2.80;96782.00;;;;5086940;28;20578;-70
2022/11/09 06:30:48;;;;;;;3.27;2.97;;;2.10;99.90;3.20;96781.00;;;;5083719;28;20417;-69
2022/11/09 06:33:37;;;;;;;3.67;3.30;;;2.40;99.90;3.60;96790.00;;;;5087093;28;20465;-69
2022/11/09 06:36:27;;;;;;;4.67;3.27;;;2.40;99.90;3.60;96786.00;;;;5088824;28;20837;-69
2022/11/09 06:39:15;;;;;;;3.70;2.77;;;2.60;99.90;2.70;96773.00;;;;5086481;28;20445;-73
2022/11/09 06:42:04;;;;;;;3.60;3.30;;;2.40;99.90;2.90;96785.00;;;;5086443;28;20449;-68
2022/11/09 06:44:53;;;;;;;6.47;4.90;;;2.30;99.90;3.10;96778.00;;;;5087044;28;20434;-69
2022/11/09 06:47:42;;;;;;;4.87;3.70;;;2.40;99.90;3.60;96788.00;;;;5087358;28;20418;-69
2022/11/09 06:50:34;;;;;;;4.53;3.53;;;2.60;99.90;2.90;96797.00;;;;5074106;28;20426;-69
2022/11/09 06:53:26;;;;;;;7.63;3.23;;;2.40;99.90;2.90;96796.00;;;;5070124;28;20466;-71
2022/11/09 06:56:15;;;;;;;5.33;3.47;;;2.30;99.90;3.10;96792.00;;;;5088089;28;20470;-69
2022/11/09 06:59:03;;;;;;;6.17;3.97;;;2.30;99.90;3.00;96787.00;;;;5081319;28;20488;-69
2022/11/09 07:01:52;;;;;;;4.00;3.27;;;2.40;99.90;3.30;96791.00;;;;5082502;28;20493;-69
2022/11/09 07:04:42;;;;;;;4.63;3.03;;;2.50;99.90;3.60;96791.00;;;;5083844;28;20568;-69
2022/11/09 07:07:31;;;;;;;7.13;3.70;;;2.60;99.90;3.50;96781.00;;;;5084204;28;20491;-73
2022/11/09 07:10:22;;;;;;;4.63;4.20;;;2.70;99.90;3.70;96777.00;;;;5082824;28;20753;-70
2022/11/09 07:13:11;;;;;;;5.03;3.17;;;2.80;99.90;3.70;96783.00;;;;5075064;28;20524;-72
2022/11/09 07:16:00;;;;;;;3.20;2.93;;;2.90;99.90;3.60;96788.00;;;;5072783;28;20454;-69
2022/11/09 07:18:49;;;;;;;10.07;3.50;;;2.80;99.90;3.10;96782.00;;;;5067914;28;20489;-69
2022/11/09 07:21:37;;;;;;;5.67;3.80;;;2.80;99.90;3.30;96774.00;;;;5077170;28;20450;-71
2022/11/09 07:24:26;;;;;;;5.57;3.10;;;2.80;99.90;3.30;96777.00;;;;5077303;28;20422;-72
2022/11/09 07:27:16;;;;;;;4.20;3.80;;;2.80;99.90;3.70;96778.00;;;;5085574;28;20837;-71
2022/11/09 07:30:06;;;;;;;6.63;3.97;;;2.90;99.90;3.70;96773.00;;;;5068482;28;20973;-68
2022/11/09 07:32:58;;;;;;;7.00;3.93;;;2.90;99.90;3.80;96765.00;;;;5081086;28;20552;-69
2022/11/09 07:36:04;;;;;;;4.00;3.60;;;3.00;99.90;4.00;96766.00;;;;5080750;28;20413;-67
2022/11/09 07:38:53;;;;;;;5.33;3.80;;;3.10;99.90;4.20;96769.00;;;;5071366;28;20884;-73
2022/11/09 07:41:42;;;;;;;3.63;3.20;;;3.20;99.90;4.60;96777.00;;;;5074552;28;20421;-69
2022/11/09 07:44:32;;;;;;;3.83;3.13;;;3.50;99.90;4.60;96769.00;;;;5081556;28;20928;-69
2022/11/09 07:47:21;;;;;;;7.20;3.30;;;3.50;99.90;4.90;96769.00;;;;5074782;28;20766;-69
2022/11/09 07:50:10;;;;;;;3.80;2.80;;;3.70;99.90;4.20;96764.00;;;;5089071;28;20874;-73
2022/11/09 07:53:00;;;;;;;5.70;3.40;;;3.70;99.90;4.30;96760.00;;;;5079332;28;20543;-69
2022/11/09 07:55:57;;;;;;;3.27;2.13;;;3.70;99.90;4.30;96758.00;;;;5083041;28;20426;-70
2022/11/09 07:58:46;;;;;;;8.70;4.63;;;3.60;99.90;4.70;96754.00;;;;5081972;28;20473;-67
2022/11/09 08:01:36;;;;;;;9.57;5.33;;;3.80;99.90;5.30;96772.00;;;;5073224;28;20516;-69
2022/11/09 08:04:24;;;;;;;10.43;5.90;;;4.00;99.90;5.50;96764.00;;;;5080716;28;20801;-69
2022/11/09 08:07:13;;;;;;;8.20;4.83;;;4.20;99.90;5.70;96766.00;;;;5086175;28;20448;-69
2022/11/09 08:10:02;;;;;;;8.33;5.20;;;4.40;99.90;5.90;96769.00;;;;5085879;28;20991;-69
2022/11/09 08:12:56;;;;;;;5.93;3.83;;;4.60;99.90;5.90;96769.00;;;;5082525;28;20510;-71
2022/11/09 08:15:45;;;;;;;5.63;5.07;;;4.70;99.90;6.20;96765.00;;;;5074398;28;20422;-69
2022/11/09 08:18:35;;;;;;;8.07;5.37;;;4.90;99.90;6.40;96771.00;;;;5082678;28;20659;-69
2022/11/09 08:21:23;;;;;;;7.77;5.20;;;5.10;99.90;6.50;96765.00;;;;5082427;28;20265;-69
2022/11/09 08:24:12;;;;;;;8.50;5.03;;;5.20;99.90;6.90;96770.00;;;;5083267;28;20585;-69
2022/11/09 08:27:01;;;;;;;8.10;6.93;;;5.40;99.90;7.10;96762.00;;;;5081884;28;20195;-69
2022/11/09 08:29:49;;;;;;;6.87;5.47;;;5.60;99.90;7.30;96766.00;;;;5083417;28;20317;-69
2022/11/09 08:32:38;;;;;;;10.37;6.20;;;5.80;99.90;7.60;96766.00;;;;5091364;28;20215;-69
2022/11/09 08:35:28;;;;;;;7.90;5.53;;;6.00;99.90;8.10;96773.00;;;;5085471;28;20196;-69
2022/11/09 08:38:17;;;;;;;6.37;4.90;;;6.30;99.90;8.10;96771.00;;;;5082501;28;20266;-70
2022/11/09 08:41:06;;;;;;;6.40;4.97;;;6.60;99.90;8.20;96771.00;;;;5081851;28;20212;-69
2022/11/09 08:43:58;;;;;;;6.93;5.03;;;6.80;99.90;8.20;96771.00;;;;5079669;28;20619;-67
2022/11/09 08:46:46;;;;;;;8.07;5.20;;;7.00;99.90;8.60;96762.00;;;;5091406;28;20624;-68
2022/11/09 08:49:35;;;;;;;6.80;4.53;;;7.20;99.90;9.10;96766.00;;;;5074300;28;20306;-69
2022/11/09 08:52:25;;;;;;;6.40;5.17;;;7.40;99.90;9.40;96772.00;;;;5086069;28;20204;-69
2022/11/09 08:55:14;;;;;;;8.50;4.80;;;7.60;99.90;9.40;96769.00;;;;5085083;28;20191;-70
2022/11/09 08:58:04;;;;;;;6.73;4.90;;;7.80;99.90;9.70;96771.00;;;;5083815;28;20950;-69
2022/11/09 09:00:53;;;;;;;7.50;4.80;;;8.00;99.90;10.10;96780.00;;;;5090518;28;20644;-68
2022/11/09 09:03:42;;;;;;;7.97;5.63;;;8.30;99.90;10.60;96782.00;;;;5084654;28;20692;-69
2022/11/09 09:06:30;;;;;;;6.73;5.40;;;8.50;99.90;10.60;96781.00;;;;5083398;28;20207;-69
2022/11/09 09:09:21;;;;;;;5.87;4.70;;;8.80;99.90;10.90;96780.00;;;;5089869;28;20855;-69
2022/11/09 09:12:10;;;;;;;7.00;3.90;;;9.00;99.90;11.00;96777.00;;;;5075619;28;20204;-69
2022/11/09 09:14:59;;;;;;;5.70;4.53;;;9.20;99.90;11.30;96790.00;;;;5081234;28;20253;-69
2022/11/09 09:17:48;;;;;;;6.30;3.53;;;9.40;99.90;11.70;96789.00;;;;5079987;28;20207;-70
2022/11/09 09:20:36;;;;;;;6.97;5.50;;;9.60;99.90;11.40;96786.00;;;;5078013;28;20389;-69
2022/11/09 09:23:26;;;;;;;5.20;4.53;;;9.80;99.90;11.70;96795.00;;;;5091140;28;20237;-69
2022/11/09 09:26:16;;;;;;;5.73;4.43;;;10.00;99.90;11.60;96794.00;;;;5080949;28;20258;-69
2022/11/09 09:29:04;;;;;;;6.27;4.20;;;10.10;99.90;11.90;96792.00;;;;5083900;28;20254;-69
2022/11/09 09:31:53;;;;;;;6.30;4.97;;;10.20;99.90;12.10;96786.00;;;;5084208;28;20199;-69
2022/11/09 09:34:42;;;;;;;12.07;4.23;;;10.40;99.90;12.60;96800.00;;;;5088497;28;20223;-69
2022/11/09 09:37:30;;;;;;;9.30;4.43;;;9.10;99.90;12.70;96789.00;;;;5081627;28;20285;-69
2022/11/09 09:40:29;;;;;;;4.73;4.27;;;10.80;99.90;12.50;96787.00;;;;5082456;28;20207;-69
2022/11/09 09:43:27;;;;;;;6.73;4.30;;;10.80;99.90;12.50;96784.00;;;;5085010;28;20211;-68
2022/11/09 09:46:24;;;;;;;5.03;3.77;;;10.90;99.90;12.60;96787.00;;;;5077353;28;20200;-70
2022/11/09 09:49:18;;;;;;;5.17;4.07;;;11.10;99.90;12.70;96790.00;;;;5083587;28;20484;-69
2022/11/09 09:52:18;;;;;;;6.10;3.93;;;11.10;99.90;13.20;96795.00;;;;5085458;28;20203;-70
2022/11/09 09:55:16;;;;;;;4.57;3.73;;;11.30;99.90;12.80;96787.00;;;;5081792;28;20212;-69
2022/11/09 09:58:11;;;;;;;6.00;4.00;;;11.30;99.90;13.30;96786.00;;;;5074577;28;20208;-69
2022/11/09 10:01:11;;;;;;;5.87;4.57;;;11.40;99.90;13.70;96784.00;;;;5076821;28;20195;-69
2022/11/09 10:04:00;;;;;;;4.77;3.80;;;11.70;99.90;13.90;96779.00;;;;5085203;28;20203;-69
2022/11/09 10:07:03;;;;;;;6.27;4.07;;;11.80;99.90;13.90;96773.00;;;;5074051;28;20214;-69
2022/11/09 10:10:17;;;;;;;5.47;3.97;;;12.00;99.90;14.10;96783.00;;;;5090322;28;20222;-70
2022/11/09 10:13:36;;;;;;;5.97;3.53;;;12.20;99.90;14.80;96777.00;;;;5083925;28;20626;-69
2022/11/09 10:16:35;;;;;;;3.53;3.23;;;12.80;99.90;14.60;96784.00;;;;5072021;28;20192;-69
2022/11/09 10:19:41;;;;;;;6.43;4.30;;;13.70;99.90;15.00;96762.00;;;;5089111;28;20251;-70
2022/11/09 10:22:41;;;;;;;5.83;4.07;;;14.30;99.90;15.70;96768.00;;;;5080130;28;20252;-70
2022/11/09 10:25:33;;;;;;;6.33;3.80;;;14.90;99.90;15.90;96764.00;;;;5082831;28;20212;-69
2022/11/09 10:28:44;;;;;;;3.30;3.00;;;15.50;99.90;16.50;96768.00;;;;5083967;28;20756;-68
2022/11/09 10:32:00;;;;;;;6.43;3.60;;;15.90;99.90;16.90;96769.00;;;;5075471;28;20953;-68
2022/11/09 10:34:56;;;;;;;7.60;3.97;;;16.30;99.40;17.10;96765.00;;;;5084220;28;20234;-69
2022/11/09 10:37:47;;;;;;;4.93;3.50;;;16.60;97.30;16.90;96770.00;;;;5069176;28;20204;-70
2022/11/09 10:40:42;;;;;;;7.07;3.30;;;16.70;95.80;17.20;96766.00;;;;5069010;28;20204;-69
2022/11/09 10:43:31;;;;;;;3.83;3.37;;;16.70;96.10;17.80;96761.00;;;;5082061;28;20231;-69
2022/11/09 10:46:20;;;;;;;5.10;3.30;;;17.00;94.80;17.70;96776.00;;;;5083445;28;20665;-69
2022/11/09 10:49:21;;;;;;;4.57;3.47;;;15.70;94.10;18.30;96769.00;;;;5079789;28;20641;-70
2022/11/09 10:52:38;;;;;;;3.90;3.07;;;17.20;94.30;18.00;96769.00;;;;5069587;28;20194;-70
2022/11/09 10:55:30;;;;;;;4.83;2.83;;;17.40;92.50;17.70;96781.00;;;;5072051;28;20275;-69
2022/11/09 10:58:31;;;;;;;4.20;3.57;;;17.20;92.50;16.80;96776.00;;;;5079964;28;20290;-70
2022/11/09 11:01:22;;;;;;;3.93;3.10;;;16.80;91.50;16.70;96775.00;;;;5079101;28;21211;-72
2022/11/09 11:04:24;;;;;;;5.17;3.10;;;16.40;92.10;17.10;96771.00;;;;5079754;28;20597;-70
2022/11/09 11:07:20;;;;;;;4.33;3.40;;;16.10;93.60;16.80;96774.00;;;;5081532;28;20334;-70
2022/11/09 11:10:19;;;;;;;4.43;3.53;;;16.00;93.70;16.90;96761.00;;;;5079482;28;20211;-70
2022/11/09 11:13:24;;;;;;;8.33;3.90;;;15.80;94.70;17.30;96761.00;;;;5082736;28;20683;-70
2022/11/09 11:16:26;;;;;;;6.90;3.33;;;15.90;94.00;17.30;96757.00;;;;5077617;28;20196;-71
2022/11/09 11:19:33;;;;;;;4.10;3.07;;;16.00;94.00;17.90;96752.00;;;;5078023;28;20288;-70
2022/11/09 11:22:26;;;;;;;3.47;2.93;;;16.20;93.80;18.10;96754.00;;;;5080132;28;20199;-70
2022/11/09 11:25:20;;;;;;;4.00;3.23;;;16.50;93.60;19.10;96755.00;;;;5080496;28;20208;-70
2022/11/09 11:28:20;;;;;;;5.07;3.53;;;16.80;94.40;19.20;96754.00;;;;5085716;28;20262;-70
2022/11/09 11:31:14;;;;;;;4.57;3.17;;;17.20;93.10;18.80;96754.00;;;;5076466;28;20241;-70
2022/11/09 11:34:07;;;;;;;4.30;3.30;;;17.40;92.20;18.30;96745.00;;;;5083930;28;20215;-71
2022/11/09 11:37:15;;;;;;;6.50;3.33;;;17.40;91.10;18.50;96752.00;;;;5083672;28;20695;-69
2022/11/09 11:40:08;;;;;;;5.13;3.13;;;17.10;91.30;17.70;96746.00;;;;5076950;28;20285;-71
2022/11/09 11:43:33;;;;;;;3.80;3.23;;;16.90;91.20;17.40;96739.00;;;;5087978;28;20264;-69
2022/11/09 11:46:33;;;;;;;6.33;3.47;;;16.60;90.90;18.00;96736.00;;;;5055843;28;20200;-69
2022/11/09 11:50:00;;;;;;;4.13;2.93;;;16.50;91.70;18.40;96741.00;;;;5070390;28;20220;-70
2022/11/09 11:53:09;;;;;;;5.63;3.70;;;16.60;91.70;18.40;96741.00;;;;5081586;28;20268;-70
2022/11/09 11:56:26;;;;;;;4.80;3.37;;;16.60;91.70;17.80;96726.00;;;;5074556;28;20272;-71
2022/11/09 11:59:41;;;;;;;6.20;3.53;;;16.50;91.20;18.60;96735.00;;;;5073832;28;20675;-70
2022/11/09 12:03:16;;;;;;;4.03;3.27;;;16.60;91.60;18.80;96742.00;;;;5079463;28;20282;-70
2022/11/09 12:06:37;;;;;;;4.20;3.20;;;16.70;91.90;19.40;96733.00;;;;5080833;28;20639;-69
2022/11/09 12:09:48;;;;;;;4.67;3.03;;;17.10;91.60;19.90;96725.00;;;;5084286;28;20226;-71
2022/11/09 12:12:49;;;;;;;4.03;3.23;;;17.40;90.50;20.00;96723.00;;;;5085254;28;20244;-70
2022/11/09 12:15:52;;;;;;;3.23;2.73;;;17.80;90.20;20.60;96709.00;;;;5080200;28;20281;-70
2022/11/09 12:18:50;;;;;;;4.77;2.67;;;18.20;89.20;20.70;96707.00;;;;5073618;28;20215;-69
2022/11/09 12:21:46;;;;;;;3.37;3.03;;;18.50;87.60;21.20;96703.00;;;;5082229;28;20253;-69
2022/11/09 12:24:45;;;;;;;5.13;2.30;;;18.80;86.80;22.00;96704.00;;;;5080199;28;20196;-69
2022/11/09 12:28:05;;;;;;;2.47;2.27;;;19.30;86.40;21.90;96705.00;;;;5079464;28;20644;-69
2022/11/09 12:31:10;;;;;;;2.93;2.47;;;19.70;82.50;22.00;96701.00;;;;5077088;28;20242;-70
2022/11/09 12:34:03;;;;;;;3.23;2.70;;;20.00;81.60;23.20;96710.00;;;;5084079;28;20226;-70
2022/11/09 12:36:56;;;;;;;3.07;2.73;;;20.30;80.80;22.80;96698.00;;;;5086296;28;20257;-70
2022/11/09 12:39:49;;;;;;;2.87;2.40;;;20.40;77.90;23.50;96700.00;;;;5084482;28;20600;-69
2022/11/09 12:42:44;;;;;;;3.53;2.50;;;20.60;78.70;23.70;96710.00;;;;5085688;28;20247;-70
2022/11/09 12:45:35;;;;;;;2.67;2.33;;;21.20;75.50;24.00;96700.00;;;;5084212;28;20209;-69
2022/11/09 12:48:28;;;;;;;3.87;2.63;;;21.60;74.50;23.90;96702.00;;;;5081084;28;20276;-69
2022/11/09 12:51:17;;;;;;;3.47;2.73;;;21.90;71.00;24.30;96701.00;;;;5076798;28;20211;-69
2022/11/09 12:54:10;;;;;;;2.65;2.00;;;22.00;71.20;24.00;96699.00;;;;5086844;28;20262;-70
2022/11/09 12:57:04;;;;;;;5.80;3.03;;;22.00;70.10;22.70;96705.00;;;;5084567;28;20547;-70
2022/11/09 12:59:55;;;;;;;2.83;2.53;;;21.60;69.00;22.90;96703.00;;;;5081902;28;20218;-70